createdAt,value
2022-12-15T00:02:06.765Z,12.50
2022-12-15T00:05:27.621Z,12.85
2022-12-15T00:08:47.921Z,11.80
2022-12-15T00:12:07.802Z,12.70
2022-12-15T00:15:28.267Z,12.68
2022-12-15T00:18:48.300Z,13.60
2022-12-15T00:22:08.304Z,12.88
2022-12-15T00:25:28.648Z,13.07
2022-12-15T00:28:48.870Z,12.73
2022-12-15T00:32:08.888Z,13.10
2022-12-15T00:35:29.480Z,14.07
2022-12-15T00:38:46.000Z,14.05
2022-12-15T00:41:47.581Z,13.50
2022-12-15T00:44:49.113Z,13.93
2022-12-15T00:47:50.657Z,13.85
2022-12-15T00:50:52.202Z,13.48
2022-12-15T00:54:17.840Z,13.23
2022-12-15T00:57:38.704Z,14.40
2022-12-15T01:00:58.913Z,13.52
2022-12-15T01:04:18.747Z,14.15
2022-12-15T01:07:39.038Z,13.37
2022-12-15T01:10:59.207Z,13.57
2022-12-15T01:14:19.180Z,13.82
2022-12-15T01:17:39.835Z,14.03
2022-12-15T01:20:41.373Z,13.88
2022-12-15T01:23:42.988Z,14.27
2022-12-15T01:26:44.517Z,15.15
2022-12-15T01:29:46.121Z,15.00
2022-12-15T01:32:47.982Z,15.13
2022-12-15T01:36:00.352Z,13.90
2022-12-15T01:39:01.985Z,14.87
2022-12-15T01:42:03.514Z,14.48
2022-12-15T01:45:51.718Z,13.63
2022-12-15T01:49:22.391Z,13.43
2022-12-15T01:52:23.942Z,14.02
2022-12-15T01:55:30.069Z,13.05
2022-12-15T01:58:32.594Z,12.05
2022-12-15T02:01:34.619Z,11.63
2022-12-15T02:04:37.932Z,11.88
2022-12-15T02:07:39.648Z,12.52
2022-12-15T02:11:11.277Z,12.67
2022-12-15T02:14:22.277Z,12.48
2022-12-15T02:17:47.387Z,12.82
2022-12-15T02:21:13.890Z,13.07
2022-12-15T02:24:39.795Z,13.48
2022-12-15T02:28:06.959Z,12.05
2022-12-15T02:31:36.374Z,13.40
2022-12-15T02:34:46.835Z,13.23
2022-12-15T02:37:49.801Z,13.15
2022-12-15T02:40:58.338Z,13.23
2022-12-15T02:44:04.219Z,12.97
2022-12-15T02:47:25.393Z,13.15
2022-12-15T02:50:39.069Z,13.48
2022-12-15T02:54:07.299Z,12.80
2022-12-15T02:57:28.575Z,13.60
2022-12-15T03:00:36.766Z,13.65
2022-12-15T03:03:39.869Z,13.52
2022-12-15T03:06:42.163Z,12.85
2022-12-15T03:09:43.695Z,13.70
2022-12-15T03:12:45.477Z,13.05
2022-12-15T03:15:47.115Z,13.47
2022-12-15T03:18:48.687Z,12.80
2022-12-15T03:21:50.585Z,13.55
2022-12-15T03:24:52.292Z,13.70
2022-12-15T03:27:53.859Z,14.43
2022-12-15T03:30:56.424Z,12.45
2022-12-15T03:33:58.001Z,13.80
2022-12-15T03:36:59.547Z,13.55
2022-12-15T03:40:01.105Z,13.77
2022-12-15T03:43:02.636Z,14.02
2022-12-15T03:46:04.292Z,14.30
2022-12-15T03:49:05.971Z,13.40
2022-12-15T03:52:07.510Z,13.30
2022-12-15T03:55:09.965Z,12.30
2022-12-15T03:58:11.539Z,13.73
2022-12-15T04:01:34.467Z,14.15
2022-12-15T04:04:36.089Z,13.10
2022-12-15T04:07:37.644Z,13.88
2022-12-15T04:10:39.282Z,13.35
2022-12-15T04:13:40.879Z,14.30
2022-12-15T04:16:42.476Z,14.13
2022-12-15T04:20:02.400Z,14.35
2022-12-15T04:23:04.405Z,13.43
2022-12-15T04:26:24.179Z,12.73
2022-12-15T04:29:44.180Z,12.05
2022-12-15T04:33:04.738Z,13.68
2022-12-15T04:36:28.725Z,13.32
2022-12-15T04:39:49.282Z,13.27
2022-12-15T04:43:09.640Z,13.80
2022-12-15T04:46:29.812Z,12.98
2022-12-15T04:49:50.035Z,14.17
2022-12-15T04:53:10.387Z,13.60
2022-12-15T04:56:32.681Z,13.27
2022-12-15T04:59:52.864Z,12.97
2022-12-15T05:03:18.134Z,13.77
2022-12-15T05:06:38.836Z,13.60
2022-12-15T05:10:02.944Z,13.20
2022-12-15T05:13:27.394Z,12.68
2022-12-15T05:16:47.866Z,13.15
2022-12-15T05:20:08.192Z,13.57
2022-12-15T05:23:28.355Z,13.27
2022-12-15T05:26:52.733Z,14.05
2022-12-15T05:30:13.236Z,13.73
2022-12-15T05:33:14.763Z,13.13
2022-12-15T05:36:16.333Z,13.27
2022-12-15T05:39:17.905Z,13.82
2022-12-15T05:42:19.477Z,13.98
2022-12-15T05:45:21.011Z,13.25
2022-12-15T05:48:22.553Z,13.20
2022-12-15T05:51:24.095Z,13.88
2022-12-15T05:54:25.675Z,13.53
2022-12-15T05:57:27.236Z,13.70
2022-12-15T06:00:28.772Z,14.63
2022-12-15T06:03:31.682Z,13.50
2022-12-15T06:06:33.413Z,14.35
2022-12-15T06:09:34.981Z,14.18
2022-12-15T06:12:36.512Z,14.57
2022-12-15T06:15:38.048Z,14.40
2022-12-15T06:18:43.196Z,15.07
2022-12-15T06:21:48.034Z,14.07
2022-12-15T06:24:49.559Z,14.60
2022-12-15T06:27:51.057Z,14.75
2022-12-15T06:30:54.323Z,15.27
2022-12-15T06:34:01.676Z,14.53
2022-12-15T06:37:04.521Z,14.48
2022-12-15T06:40:06.680Z,15.25
2022-12-15T06:43:08.648Z,14.73
2022-12-15T06:46:10.275Z,14.32
2022-12-15T06:49:12.005Z,15.63
2022-12-15T06:52:13.696Z,14.93
2022-12-15T06:55:15.340Z,14.97
2022-12-15T06:58:18.196Z,14.50
2022-12-15T07:01:22.330Z,13.93
2022-12-15T07:04:24.041Z,14.70
2022-12-15T07:07:26.251Z,15.23
2022-12-15T07:10:27.778Z,14.30
2022-12-15T07:13:29.740Z,15.75
2022-12-15T07:16:32.028Z,15.20
2022-12-15T07:19:33.609Z,14.65
2022-12-15T07:22:35.356Z,15.02
2022-12-15T07:25:37.225Z,13.90
2022-12-15T07:28:38.801Z,14.80
2022-12-15T07:31:40.684Z,14.88
2022-12-15T07:34:42.603Z,14.70
2022-12-15T07:37:44.143Z,14.65
2022-12-15T07:40:45.879Z,14.43
2022-12-15T07:43:47.957Z,15.95
2022-12-15T07:46:49.743Z,14.77
2022-12-15T07:49:51.566Z,15.40
2022-12-15T07:52:53.100Z,15.50
2022-12-15T07:56:07.564Z,15.23
2022-12-15T07:59:10.368Z,15.88
2022-12-15T08:02:13.387Z,14.95
2022-12-15T08:05:15.168Z,14.77
2022-12-15T08:08:18.406Z,15.60
2022-12-15T08:11:24.547Z,18.98
2022-12-15T08:14:26.143Z,16.98
2022-12-15T08:17:27.703Z,15.30
2022-12-15T08:20:30.564Z,16.20
2022-12-15T08:23:33.306Z,15.48
2022-12-15T08:26:37.892Z,14.70
2022-12-15T08:29:54.840Z,14.82
2022-12-15T08:32:56.399Z,15.02
2022-12-15T08:36:00.216Z,14.57
2022-12-15T08:39:02.602Z,14.38
2022-12-15T08:42:04.547Z,15.32
2022-12-15T08:45:06.641Z,14.80
2022-12-15T08:48:08.150Z,14.43
2022-12-15T08:51:10.268Z,15.02
2022-12-15T08:54:11.803Z,15.52
2022-12-15T08:57:13.359Z,16.13
2022-12-15T09:00:16.067Z,15.23
2022-12-15T09:03:17.585Z,15.10
2022-12-15T09:06:24.807Z,14.47
2022-12-15T09:09:26.652Z,14.73
2022-12-15T09:12:28.726Z,15.27
2022-12-15T09:16:00.197Z,15.90
2022-12-15T09:18:54.785Z,15.80
2022-12-15T09:21:56.295Z,15.05
2022-12-15T09:24:57.856Z,14.52
2022-12-15T09:27:59.365Z,15.37
2022-12-15T09:31:08.764Z,14.93
2022-12-15T09:34:15.946Z,14.70
2022-12-15T09:37:18.449Z,14.40
2022-12-15T09:40:20.309Z,14.20
2022-12-15T09:43:46.551Z,15.30
2022-12-15T09:47:23.541Z,14.27
2022-12-15T09:50:34.136Z,14.63
2022-12-15T09:57:00.228Z,13.88
2022-12-15T10:00:14.378Z,14.77
2022-12-15T10:03:33.472Z,15.38
2022-12-15T10:06:50.563Z,15.10
2022-12-15T10:09:52.468Z,14.10
2022-12-15T10:13:02.598Z,14.02
2022-12-15T10:16:15.819Z,14.95
2022-12-15T10:19:26.356Z,14.75
2022-12-15T10:22:32.431Z,14.80
2022-12-15T10:25:34.064Z,14.30
2022-12-15T10:28:51.238Z,15.38
2022-12-15T10:32:05.035Z,15.10
2022-12-15T10:35:16.721Z,15.45
2022-12-15T10:38:34.253Z,15.30
2022-12-15T10:41:35.801Z,15.93
2022-12-15T10:44:40.288Z,15.55
2022-12-15T10:47:41.858Z,14.73
2022-12-15T10:50:43.643Z,15.68
2022-12-15T10:53:52.202Z,14.50
2022-12-15T10:57:14.503Z,16.60
2022-12-15T11:00:15.964Z,15.82
2022-12-15T11:03:26.358Z,14.87
2022-12-15T11:06:36.815Z,15.88
2022-12-15T11:09:39.386Z,14.95
2022-12-15T11:12:59.504Z,15.20
2022-12-15T11:16:14.389Z,14.95
2022-12-15T11:19:36.233Z,15.15
2022-12-15T11:22:47.345Z,15.48
2022-12-15T11:26:38.218Z,15.85
2022-12-15T11:29:55.505Z,15.65
2022-12-15T11:33:00.218Z,16.25
2022-12-15T11:36:19.684Z,15.43
2022-12-15T11:39:58.443Z,15.98
2022-12-15T11:43:20.061Z,16.02
2022-12-15T11:46:30.294Z,15.50
2022-12-15T11:49:51.034Z,16.75
2022-12-15T11:52:55.529Z,16.08
2022-12-15T11:56:11.436Z,17.65
2022-12-15T11:59:25.184Z,17.05
2022-12-15T12:02:42.101Z,16.35
2022-12-15T12:05:57.615Z,17.25
2022-12-15T12:09:11.324Z,17.83
2022-12-15T12:12:16.245Z,17.40
2022-12-15T12:16:00.012Z,17.58
2022-12-15T12:19:09.880Z,17.33
2022-12-15T12:22:30.246Z,17.98
2022-12-15T12:25:39.901Z,17.70
2022-12-15T12:28:52.691Z,16.75
2022-12-15T12:31:57.705Z,16.35
2022-12-15T12:35:31.635Z,16.42
2022-12-15T12:38:40.395Z,17.83
2022-12-15T12:42:00.137Z,16.60
2022-12-15T12:45:02.575Z,16.98
2022-12-15T12:48:18.369Z,17.92
2022-12-15T12:51:40.982Z,16.50
2022-12-15T12:54:50.381Z,18.20
2022-12-15T12:57:53.699Z,17.00
2022-12-15T13:01:30.926Z,18.85
2022-12-15T13:04:40.199Z,18.10
2022-12-15T13:07:41.718Z,17.48
2022-12-15T13:10:45.755Z,18.10
2022-12-15T13:13:53.056Z,18.43
2022-12-15T13:17:26.434Z,17.85
2022-12-15T13:20:33.892Z,18.48
2022-12-15T13:23:40.308Z,17.60
2022-12-15T13:26:44.992Z,19.17
2022-12-15T13:30:15.840Z,19.08
2022-12-15T13:33:18.795Z,18.40
2022-12-15T13:36:41.926Z,18.27
2022-12-15T13:39:55.909Z,17.65
2022-12-15T13:43:00.698Z,18.10
2022-12-15T13:46:15.056Z,17.60
2022-12-15T13:49:27.088Z,17.95
2022-12-15T13:53:16.576Z,17.92
2022-12-15T13:56:12.218Z,19.10
2022-12-15T13:59:29.323Z,18.73
2022-12-15T14:02:33.475Z,18.70
2022-12-15T14:05:35.529Z,19.65
2022-12-15T14:08:37.809Z,17.48
2022-12-15T14:11:57.321Z,17.65
2022-12-15T14:14:59.088Z,18.42
2022-12-15T14:18:01.926Z,18.07
2022-12-15T14:21:19.356Z,19.25
2022-12-15T14:27:51.226Z,17.70
2022-12-15T14:30:53.002Z,19.45
2022-12-15T14:34:06.938Z,17.50
2022-12-15T14:37:15.782Z,18.55
2022-12-15T14:40:21.377Z,18.15
2022-12-15T14:43:30.484Z,19.10
2022-12-15T14:46:32.814Z,19.15
2022-12-15T14:49:43.270Z,19.17
2022-12-15T14:52:45.031Z,18.33
2022-12-15T14:55:46.637Z,17.63
2022-12-15T14:59:18.007Z,16.90
2022-12-15T15:02:31.379Z,19.05
2022-12-15T15:03:11.857Z,18.95
2022-12-15T15:05:33.429Z,18.58
2022-12-15T15:08:42.379Z,16.90
2022-12-15T15:11:44.416Z,16.80
2022-12-15T15:15:05.880Z,18.77
2022-12-15T15:18:15.368Z,17.77
2022-12-15T15:21:21.714Z,17.37
2022-12-15T15:24:29.494Z,16.05
2022-12-15T15:27:42.217Z,16.83
2022-12-15T15:30:48.068Z,21.83
2022-12-15T15:33:50.244Z,17.13
2022-12-15T15:36:51.800Z,15.45
2022-12-15T15:39:54.955Z,14.95
2022-12-15T15:42:56.564Z,15.93
2022-12-15T15:46:08.644Z,15.88
2022-12-15T15:49:16.277Z,15.07
2022-12-15T15:55:43.990Z,15.23
2022-12-15T15:58:45.543Z,15.88
2022-12-15T16:01:52.619Z,15.67
2022-12-15T16:04:54.197Z,16.35
2022-12-15T16:07:56.252Z,16.63
2022-12-15T16:10:58.000Z,15.15
2022-12-15T16:14:01.451Z,16.15
2022-12-15T16:17:03.080Z,17.33
2022-12-15T16:20:05.188Z,17.38
2022-12-15T16:23:13.374Z,16.90
2022-12-15T16:26:22.622Z,15.73
2022-12-15T16:29:24.142Z,17.15
2022-12-15T16:32:25.734Z,16.27
2022-12-15T16:35:27.307Z,15.80
2022-12-15T16:38:32.913Z,16.10
2022-12-15T16:41:34.685Z,15.80
2022-12-15T16:44:36.278Z,19.20
2022-12-15T16:47:37.785Z,17.40
2022-12-15T16:50:45.265Z,16.33
2022-12-15T16:53:46.857Z,16.30
2022-12-15T16:56:48.797Z,17.10
2022-12-15T16:59:50.326Z,21.70
2022-12-15T17:02:53.319Z,24.20
2022-12-15T17:05:59.275Z,21.48
2022-12-15T17:09:01.405Z,18.90
2022-12-15T17:12:03.165Z,38.38
2022-12-15T17:15:16.001Z,26.25
2022-12-15T17:18:17.613Z,20.10
2022-12-15T17:21:44.332Z,21.27
2022-12-15T17:24:46.055Z,34.80
2022-12-15T17:27:49.525Z,26.15
2022-12-15T17:30:51.897Z,40.60
2022-12-15T17:33:53.443Z,31.53
2022-12-15T17:37:01.747Z,19.88
2022-12-15T17:40:13.721Z,18.35
2022-12-15T17:43:18.434Z,18.10
2022-12-15T17:46:20.342Z,20.10
2022-12-15T17:49:22.155Z,18.33
2022-12-15T17:52:29.807Z,18.75
2022-12-15T17:55:35.289Z,17.13
2022-12-15T17:58:37.068Z,17.83
2022-12-15T18:01:38.680Z,17.17
2022-12-15T18:04:43.940Z,16.83
2022-12-15T18:07:50.008Z,16.95
2022-12-15T18:10:56.764Z,18.20
2022-12-15T18:13:58.420Z,17.63
2022-12-15T18:16:59.925Z,17.98
2022-12-15T18:20:04.602Z,18.98
2022-12-15T18:23:13.445Z,18.35
2022-12-15T18:26:15.272Z,18.37
2022-12-15T18:29:18.268Z,18.77
2022-12-15T18:32:23.656Z,17.40
2022-12-15T18:35:41.040Z,17.83
2022-12-15T18:38:43.032Z,18.30
2022-12-15T18:41:44.920Z,17.50
2022-12-15T18:44:49.240Z,18.17
2022-12-15T18:47:52.511Z,19.63
2022-12-15T18:50:58.176Z,18.38
2022-12-15T18:53:59.841Z,18.58
2022-12-15T18:57:01.873Z,18.50
2022-12-15T19:00:09.555Z,18.92
2022-12-15T19:03:11.088Z,18.23
2022-12-15T19:06:34.698Z,18.57
2022-12-15T19:09:36.295Z,18.48
2022-12-15T19:12:37.809Z,19.33
2022-12-15T19:15:39.422Z,19.23
2022-12-15T19:18:59.709Z,19.90
2022-12-15T19:22:20.182Z,18.83
2022-12-15T19:25:26.377Z,19.60
2022-12-15T19:28:28.224Z,18.90
2022-12-15T19:31:29.835Z,18.48
2022-12-15T19:34:31.525Z,20.35
2022-12-15T19:37:34.821Z,19.20
2022-12-15T19:40:37.606Z,20.02
2022-12-15T19:43:39.091Z,21.02
2022-12-15T19:46:42.363Z,20.15
2022-12-15T19:49:44.029Z,19.20
2022-12-15T19:52:48.981Z,19.30
2022-12-15T19:55:53.341Z,18.95
2022-12-15T19:58:55.623Z,17.43
2022-12-15T20:01:57.261Z,19.13
2022-12-15T20:04:58.872Z,19.05
2022-12-15T20:08:00.377Z,19.23
2022-12-15T20:11:01.997Z,18.80
2022-12-15T20:14:12.719Z,21.17
2022-12-15T20:17:14.751Z,19.10
2022-12-15T20:20:18.647Z,19.25
2022-12-15T20:23:27.733Z,21.02
2022-12-15T20:26:30.514Z,19.02
2022-12-15T20:29:32.595Z,18.97
2022-12-15T20:32:38.385Z,20.40
2022-12-15T20:35:41.256Z,19.38
2022-12-15T20:38:43.650Z,19.63
2022-12-15T20:41:45.751Z,19.63
2022-12-15T20:44:49.080Z,18.40
2022-12-15T20:47:53.037Z,18.45
2022-12-15T20:50:54.683Z,17.90
2022-12-15T20:53:58.594Z,18.38
2022-12-15T20:57:00.155Z,19.05
2022-12-15T21:00:01.688Z,17.03
2022-12-15T21:03:18.263Z,18.83
2022-12-15T21:06:20.807Z,17.63
2022-12-15T21:09:23.770Z,18.37
2022-12-15T21:12:27.782Z,16.73
2022-12-15T21:15:29.636Z,17.30
2022-12-15T21:21:54.751Z,15.52
2022-12-15T21:24:58.350Z,16.20
2022-12-15T21:27:59.851Z,17.33
2022-12-15T21:31:01.757Z,16.30
2022-12-15T21:34:03.296Z,16.30
2022-12-15T21:37:06.233Z,16.35
2022-12-15T21:40:08.563Z,16.40
2022-12-15T21:43:11.619Z,15.25
2022-12-15T21:46:23.347Z,16.27
2022-12-15T21:49:28.062Z,15.60
2022-12-15T21:52:29.659Z,15.65
2022-12-15T21:55:31.579Z,15.00
2022-12-15T21:58:33.373Z,15.55
2022-12-15T22:01:35.498Z,15.10
2022-12-15T22:04:37.642Z,15.35
2022-12-15T22:07:39.281Z,16.23
2022-12-15T22:10:41.186Z,14.87
2022-12-15T22:13:42.794Z,14.88
2022-12-15T22:16:44.658Z,16.10
2022-12-15T22:19:46.946Z,15.35
2022-12-15T22:22:48.918Z,15.18
2022-12-15T22:25:54.716Z,15.05
2022-12-15T22:28:59.620Z,14.98
2022-12-15T22:32:01.747Z,13.80
2022-12-15T22:35:13.619Z,14.48
2022-12-15T22:38:15.782Z,13.27
2022-12-15T22:41:20.643Z,14.43
2022-12-15T22:44:32.132Z,14.30
2022-12-15T22:47:36.174Z,13.50
2022-12-15T22:50:37.739Z,14.35
2022-12-15T22:53:39.232Z,14.30
2022-12-15T22:56:41.035Z,13.18
2022-12-15T22:59:47.635Z,13.55
2022-12-15T23:02:49.276Z,13.27
2022-12-15T23:05:50.902Z,13.65
2022-12-15T23:08:55.919Z,14.25
2022-12-15T23:11:59.083Z,13.73
2022-12-15T23:15:21.580Z,12.93
2022-12-15T23:18:23.398Z,12.73
2022-12-15T23:21:25.976Z,12.23
2022-12-15T23:24:27.855Z,11.63
2022-12-15T23:27:29.461Z,11.13
2022-12-15T23:30:31.079Z,12.00
2022-12-15T23:33:33.028Z,12.10
2022-12-15T23:36:34.744Z,12.15
2022-12-15T23:39:36.262Z,11.20
2022-12-15T23:42:37.966Z,12.00
2022-12-15T23:45:40.918Z,12.40
2022-12-15T23:48:43.314Z,13.60
2022-12-15T23:51:44.941Z,12.45
2022-12-15T23:54:46.496Z,12.77
2022-12-15T23:57:48.129Z,12.35
